sensor_id;sensor_type;location;lat;lon;timestamp;P1;durP1;ratioP1;P2;durP2;ratioP2
6997;SDS011;3539;47.982;12.238;2023-06-14T00:02:00;2.97;;;2.60;;
6997;SDS011;3539;47.982;12.238;2023-06-14T00:04:26;3.27;;;2.43;;
6997;SDS011;3539;47.982;12.238;2023-06-14T00:06:53;3.73;;;2.60;;
6997;SDS011;3539;47.982;12.238;2023-06-14T00:09:21;3.17;;;2.63;;
6997;SDS011;3539;47.982;12.238;2023-06-14T00:11:48;3.20;;;2.90;;
6997;SDS011;3539;47.982;12.238;2023-06-14T00:14:16;4.07;;;2.60;;
6997;SDS011;3539;47.982;12.238;2023-06-14T00:16:43;2.57;;;2.33;;
6997;SDS011;3539;47.982;12.238;2023-06-14T00:19:10;2.93;;;2.37;;
6997;SDS011;3539;47.982;12.238;2023-06-14T00:21:36;2.83;;;2.63;;
6997;SDS011;3539;47.982;12.238;2023-06-14T00:24:04;3.20;;;2.50;;
6997;SDS011;3539;47.982;12.238;2023-06-14T00:26:31;3.17;;;2.63;;
6997;SDS011;3539;47.982;12.238;2023-06-14T00:28:58;2.90;;;2.60;;
6997;SDS011;3539;47.982;12.238;2023-06-14T00:31:26;3.73;;;2.77;;
6997;SDS011;3539;47.982;12.238;2023-06-14T00:33:52;3.77;;;3.10;;
6997;SDS011;3539;47.982;12.238;2023-06-14T00:36:19;5.53;;;2.60;;
6997;SDS011;3539;47.982;12.238;2023-06-14T00:38:46;2.97;;;2.67;;
6997;SDS011;3539;47.982;12.238;2023-06-14T00:41:13;3.90;;;2.70;;
6997;SDS011;3539;47.982;12.238;2023-06-14T00:43:39;4.00;;;2.60;;
6997;SDS011;3539;47.982;12.238;2023-06-14T00:46:06;3.27;;;2.90;;
6997;SDS011;3539;47.982;12.238;2023-06-14T00:48:34;3.47;;;2.47;;
6997;SDS011;3539;47.982;12.238;2023-06-14T00:51:02;4.57;;;2.90;;
6997;SDS011;3539;47.982;12.238;2023-06-14T00:53:29;3.27;;;2.97;;
6997;SDS011;3539;47.982;12.238;2023-06-14T00:55:58;3.90;;;2.60;;
6997;SDS011;3539;47.982;12.238;2023-06-14T00:58:26;3.30;;;2.80;;
6997;SDS011;3539;47.982;12.238;2023-06-14T01:00:53;4.03;;;2.73;;
6997;SDS011;3539;47.982;12.238;2023-06-14T01:03:20;3.40;;;2.70;;
6997;SDS011;3539;47.982;12.238;2023-06-14T01:05:49;2.93;;;2.57;;
6997;SDS011;3539;47.982;12.238;2023-06-14T01:08:21;3.53;;;3.00;;
6997;SDS011;3539;47.982;12.238;2023-06-14T01:10:52;3.07;;;2.77;;
6997;SDS011;3539;47.982;12.238;2023-06-14T01:13:25;4.07;;;2.60;;
6997;SDS011;3539;47.982;12.238;2023-06-14T01:15:54;4.60;;;3.00;;
6997;SDS011;3539;47.982;12.238;2023-06-14T01:18:21;2.70;;;2.40;;
6997;SDS011;3539;47.982;12.238;2023-06-14T01:20:52;5.10;;;2.80;;
6997;SDS011;3539;47.982;12.238;2023-06-14T01:23:21;4.00;;;3.13;;
6997;SDS011;3539;47.982;12.238;2023-06-14T01:25:49;3.00;;;2.70;;
6997;SDS011;3539;47.982;12.238;2023-06-14T01:28:17;3.07;;;2.73;;
6997;SDS011;3539;47.982;12.238;2023-06-14T01:30:46;3.00;;;2.70;;
6997;SDS011;3539;47.982;12.238;2023-06-14T01:33:13;3.60;;;3.10;;
6997;SDS011;3539;47.982;12.238;2023-06-14T01:35:41;3.87;;;3.10;;
6997;SDS011;3539;47.982;12.238;2023-06-14T01:38:08;3.43;;;2.73;;
6997;SDS011;3539;47.982;12.238;2023-06-14T01:40:36;3.60;;;2.77;;
6997;SDS011;3539;47.982;12.238;2023-06-14T01:43:04;3.47;;;2.70;;
6997;SDS011;3539;47.982;12.238;2023-06-14T01:45:32;3.90;;;3.00;;
6997;SDS011;3539;47.982;12.238;2023-06-14T01:47:59;3.10;;;2.80;;
6997;SDS011;3539;47.982;12.238;2023-06-14T01:50:27;4.30;;;3.13;;
6997;SDS011;3539;47.982;12.238;2023-06-14T01:52:54;4.30;;;2.80;;
6997;SDS011;3539;47.982;12.238;2023-06-14T01:55:21;4.57;;;3.07;;
6997;SDS011;3539;47.982;12.238;2023-06-14T01:57:51;4.67;;;3.07;;
6997;SDS011;3539;47.982;12.238;2023-06-14T02:00:18;2.83;;;2.57;;
6997;SDS011;3539;47.982;12.238;2023-06-14T02:02:45;3.90;;;3.00;;
6997;SDS011;3539;47.982;12.238;2023-06-14T02:05:12;3.27;;;2.80;;
6997;SDS011;3539;47.982;12.238;2023-06-14T02:07:38;4.53;;;2.80;;
6997;SDS011;3539;47.982;12.238;2023-06-14T02:10:05;3.07;;;2.50;;
6997;SDS011;3539;47.982;12.238;2023-06-14T02:12:33;3.60;;;3.03;;
6997;SDS011;3539;47.982;12.238;2023-06-14T02:15:01;3.80;;;2.80;;
6997;SDS011;3539;47.982;12.238;2023-06-14T02:17:28;3.37;;;2.97;;
6997;SDS011;3539;47.982;12.238;2023-06-14T02:19:55;5.00;;;2.53;;
6997;SDS011;3539;47.982;12.238;2023-06-14T02:22:22;3.67;;;2.87;;
6997;SDS011;3539;47.982;12.238;2023-06-14T02:24:49;3.30;;;3.00;;
6997;SDS011;3539;47.982;12.238;2023-06-14T02:27:15;3.13;;;2.83;;
6997;SDS011;3539;47.982;12.238;2023-06-14T02:29:42;3.27;;;2.87;;
6997;SDS011;3539;47.982;12.238;2023-06-14T02:32:11;3.63;;;3.07;;
6997;SDS011;3539;47.982;12.238;2023-06-14T02:34:37;3.23;;;2.93;;
6997;SDS011;3539;47.982;12.238;2023-06-14T02:37:07;3.47;;;2.97;;
6997;SDS011;3539;47.982;12.238;2023-06-14T02:39:34;3.53;;;2.93;;
6997;SDS011;3539;47.982;12.238;2023-06-14T02:42:01;3.47;;;3.13;;
6997;SDS011;3539;47.982;12.238;2023-06-14T02:44:29;3.67;;;3.17;;
6997;SDS011;3539;47.982;12.238;2023-06-14T02:46:55;3.03;;;2.77;;
6997;SDS011;3539;47.982;12.238;2023-06-14T02:49:25;4.47;;;3.13;;
6997;SDS011;3539;47.982;12.238;2023-06-14T02:51:52;4.30;;;3.30;;
6997;SDS011;3539;47.982;12.238;2023-06-14T02:54:18;3.13;;;2.77;;
6997;SDS011;3539;47.982;12.238;2023-06-14T02:56:45;3.70;;;2.80;;
6997;SDS011;3539;47.982;12.238;2023-06-14T02:59:12;3.20;;;2.90;;
6997;SDS011;3539;47.982;12.238;2023-06-14T03:01:40;4.67;;;3.10;;
6997;SDS011;3539;47.982;12.238;2023-06-14T03:04:07;3.03;;;2.73;;
6997;SDS011;3539;47.982;12.238;2023-06-14T03:06:35;4.00;;;3.10;;
6997;SDS011;3539;47.982;12.238;2023-06-14T03:09:02;3.43;;;3.13;;
6997;SDS011;3539;47.982;12.238;2023-06-14T03:11:30;3.27;;;2.67;;
6997;SDS011;3539;47.982;12.238;2023-06-14T03:13:57;4.10;;;2.80;;
6997;SDS011;3539;47.982;12.238;2023-06-14T03:16:24;3.20;;;2.90;;
6997;SDS011;3539;47.982;12.238;2023-06-14T03:18:53;3.23;;;2.93;;
6997;SDS011;3539;47.982;12.238;2023-06-14T03:21:20;3.57;;;2.93;;
6997;SDS011;3539;47.982;12.238;2023-06-14T03:23:49;3.17;;;2.87;;
6997;SDS011;3539;47.982;12.238;2023-06-14T03:26:16;3.30;;;3.00;;
6997;SDS011;3539;47.982;12.238;2023-06-14T03:28:43;3.70;;;3.00;;
6997;SDS011;3539;47.982;12.238;2023-06-14T03:31:10;5.40;;;3.17;;
6997;SDS011;3539;47.982;12.238;2023-06-14T03:33:37;3.17;;;2.87;;
6997;SDS011;3539;47.982;12.238;2023-06-14T03:36:04;4.20;;;2.90;;
6997;SDS011;3539;47.982;12.238;2023-06-14T03:38:33;3.50;;;2.90;;
6997;SDS011;3539;47.982;12.238;2023-06-14T03:41:01;3.63;;;3.00;;
6997;SDS011;3539;47.982;12.238;2023-06-14T03:43:28;3.90;;;2.97;;
6997;SDS011;3539;47.982;12.238;2023-06-14T03:45:55;3.30;;;3.00;;
6997;SDS011;3539;47.982;12.238;2023-06-14T03:48:22;3.83;;;3.10;;
6997;SDS011;3539;47.982;12.238;2023-06-14T03:50:49;6.77;;;5.23;;
6997;SDS011;3539;47.982;12.238;2023-06-14T03:53:15;7.07;;;5.47;;
6997;SDS011;3539;47.982;12.238;2023-06-14T03:55:42;3.47;;;3.17;;
6997;SDS011;3539;47.982;12.238;2023-06-14T03:58:11;4.23;;;3.30;;
6997;SDS011;3539;47.982;12.238;2023-06-14T04:00:38;3.23;;;2.70;;
6997;SDS011;3539;47.982;12.238;2023-06-14T04:03:05;3.47;;;3.10;;
6997;SDS011;3539;47.982;12.238;2023-06-14T04:05:32;4.07;;;3.07;;
6997;SDS011;3539;47.982;12.238;2023-06-14T04:07:59;3.23;;;2.87;;
6997;SDS011;3539;47.982;12.238;2023-06-14T04:10:26;5.07;;;3.30;;
6997;SDS011;3539;47.982;12.238;2023-06-14T04:12:53;3.47;;;3.10;;
6997;SDS011;3539;47.982;12.238;2023-06-14T04:15:21;3.93;;;3.20;;
6997;SDS011;3539;47.982;12.238;2023-06-14T04:17:48;3.30;;;2.93;;
6997;SDS011;3539;47.982;12.238;2023-06-14T04:20:15;4.93;;;3.10;;
6997;SDS011;3539;47.982;12.238;2023-06-14T04:22:43;3.10;;;2.80;;
6997;SDS011;3539;47.982;12.238;2023-06-14T04:25:10;3.50;;;2.90;;
6997;SDS011;3539;47.982;12.238;2023-06-14T04:27:37;5.20;;;3.03;;
6997;SDS011;3539;47.982;12.238;2023-06-14T04:30:04;3.33;;;2.97;;
6997;SDS011;3539;47.982;12.238;2023-06-14T04:32:34;3.47;;;2.97;;
6997;SDS011;3539;47.982;12.238;2023-06-14T04:35:03;4.67;;;3.10;;
6997;SDS011;3539;47.982;12.238;2023-06-14T04:37:30;3.47;;;3.17;;
6997;SDS011;3539;47.982;12.238;2023-06-14T04:39:58;3.93;;;3.37;;
6997;SDS011;3539;47.982;12.238;2023-06-14T04:42:25;5.50;;;3.47;;
6997;SDS011;3539;47.982;12.238;2023-06-14T04:44:56;3.90;;;3.17;;
6997;SDS011;3539;47.982;12.238;2023-06-14T04:47:23;4.00;;;3.60;;
6997;SDS011;3539;47.982;12.238;2023-06-14T04:49:56;5.53;;;3.30;;
6997;SDS011;3539;47.982;12.238;2023-06-14T04:52:25;4.13;;;3.63;;
6997;SDS011;3539;47.982;12.238;2023-06-14T04:54:54;5.63;;;3.87;;
6997;SDS011;3539;47.982;12.238;2023-06-14T04:57:21;6.93;;;3.53;;
6997;SDS011;3539;47.982;12.238;2023-06-14T04:59:50;4.03;;;3.53;;
6997;SDS011;3539;47.982;12.238;2023-06-14T05:02:20;5.70;;;3.70;;
6997;SDS011;3539;47.982;12.238;2023-06-14T05:04:48;3.73;;;3.27;;
6997;SDS011;3539;47.982;12.238;2023-06-14T05:07:17;4.57;;;3.20;;
6997;SDS011;3539;47.982;12.238;2023-06-14T05:09:45;5.83;;;3.30;;
6997;SDS011;3539;47.982;12.238;2023-06-14T05:12:12;4.97;;;3.13;;
6997;SDS011;3539;47.982;12.238;2023-06-14T05:14:38;3.93;;;3.47;;
6997;SDS011;3539;47.982;12.238;2023-06-14T05:17:05;4.50;;;3.77;;
6997;SDS011;3539;47.982;12.238;2023-06-14T05:19:32;4.97;;;3.50;;
6997;SDS011;3539;47.982;12.238;2023-06-14T05:21:59;4.33;;;3.30;;
6997;SDS011;3539;47.982;12.238;2023-06-14T05:24:29;3.80;;;3.40;;
6997;SDS011;3539;47.982;12.238;2023-06-14T05:26:57;4.10;;;3.70;;
6997;SDS011;3539;47.982;12.238;2023-06-14T05:29:24;4.97;;;3.30;;
6997;SDS011;3539;47.982;12.238;2023-06-14T05:31:51;4.67;;;3.90;;
6997;SDS011;3539;47.982;12.238;2023-06-14T05:34:17;5.47;;;3.60;;
6997;SDS011;3539;47.982;12.238;2023-06-14T05:36:44;3.67;;;3.37;;
6997;SDS011;3539;47.982;12.238;2023-06-14T05:39:11;3.90;;;3.43;;
6997;SDS011;3539;47.982;12.238;2023-06-14T05:41:40;3.63;;;3.33;;
6997;SDS011;3539;47.982;12.238;2023-06-14T05:44:06;6.13;;;3.87;;
6997;SDS011;3539;47.982;12.238;2023-06-14T05:46:33;4.13;;;3.43;;
6997;SDS011;3539;47.982;12.238;2023-06-14T05:49:00;3.80;;;3.40;;
6997;SDS011;3539;47.982;12.238;2023-06-14T05:51:29;6.53;;;3.20;;
6997;SDS011;3539;47.982;12.238;2023-06-14T05:53:56;4.10;;;3.30;;
6997;SDS011;3539;47.982;12.238;2023-06-14T05:56:22;3.33;;;3.03;;
6997;SDS011;3539;47.982;12.238;2023-06-14T05:58:50;3.27;;;2.80;;
6997;SDS011;3539;47.982;12.238;2023-06-14T06:01:17;3.27;;;2.97;;
6997;SDS011;3539;47.982;12.238;2023-06-14T06:03:44;3.00;;;2.73;;
6997;SDS011;3539;47.982;12.238;2023-06-14T06:06:12;4.83;;;2.60;;
6997;SDS011;3539;47.982;12.238;2023-06-14T06:08:40;3.57;;;2.70;;
6997;SDS011;3539;47.982;12.238;2023-06-14T06:11:06;6.23;;;3.23;;
6997;SDS011;3539;47.982;12.238;2023-06-14T06:13:33;3.07;;;2.77;;
6997;SDS011;3539;47.982;12.238;2023-06-14T06:16:02;5.90;;;3.00;;
6997;SDS011;3539;47.982;12.238;2023-06-14T06:18:29;3.40;;;2.70;;
6997;SDS011;3539;47.982;12.238;2023-06-14T06:20:56;4.27;;;2.87;;
6997;SDS011;3539;47.982;12.238;2023-06-14T06:23:23;3.20;;;2.90;;
6997;SDS011;3539;47.982;12.238;2023-06-14T06:25:50;4.37;;;3.37;;
6997;SDS011;3539;47.982;12.238;2023-06-14T06:28:17;6.63;;;3.30;;
6997;SDS011;3539;47.982;12.238;2023-06-14T06:30:43;4.17;;;2.90;;
6997;SDS011;3539;47.982;12.238;2023-06-14T06:33:12;4.70;;;3.00;;
6997;SDS011;3539;47.982;12.238;2023-06-14T06:35:39;3.67;;;3.00;;
6997;SDS011;3539;47.982;12.238;2023-06-14T06:38:06;3.30;;;2.87;;
6997;SDS011;3539;47.982;12.238;2023-06-14T06:40:36;5.93;;;3.43;;
6997;SDS011;3539;47.982;12.238;2023-06-14T06:43:06;3.63;;;3.00;;
6997;SDS011;3539;47.982;12.238;2023-06-14T06:45:35;5.30;;;3.13;;
6997;SDS011;3539;47.982;12.238;2023-06-14T06:48:05;4.27;;;3.27;;
6997;SDS011;3539;47.982;12.238;2023-06-14T06:50:33;4.60;;;3.30;;
6997;SDS011;3539;47.982;12.238;2023-06-14T06:53:00;5.17;;;3.60;;
6997;SDS011;3539;47.982;12.238;2023-06-14T06:55:27;3.83;;;3.43;;
6997;SDS011;3539;47.982;12.238;2023-06-14T06:57:53;4.97;;;3.60;;
6997;SDS011;3539;47.982;12.238;2023-06-14T07:00:20;4.73;;;3.53;;
6997;SDS011;3539;47.982;12.238;2023-06-14T07:02:47;4.30;;;3.60;;
6997;SDS011;3539;47.982;12.238;2023-06-14T07:05:14;4.17;;;3.30;;
6997;SDS011;3539;47.982;12.238;2023-06-14T07:07:42;5.60;;;2.90;;
6997;SDS011;3539;47.982;12.238;2023-06-14T07:10:09;6.07;;;3.20;;
6997;SDS011;3539;47.982;12.238;2023-06-14T07:12:36;4.60;;;4.20;;
6997;SDS011;3539;47.982;12.238;2023-06-14T07:15:05;4.23;;;3.60;;
6997;SDS011;3539;47.982;12.238;2023-06-14T07:17:33;3.47;;;2.90;;
6997;SDS011;3539;47.982;12.238;2023-06-14T07:20:00;5.13;;;3.17;;
6997;SDS011;3539;47.982;12.238;2023-06-14T07:22:39;3.60;;;3.10;;
6997;SDS011;3539;47.982;12.238;2023-06-14T07:25:09;8.57;;;5.80;;
6997;SDS011;3539;47.982;12.238;2023-06-14T07:27:38;12.10;;;7.53;;
6997;SDS011;3539;47.982;12.238;2023-06-14T07:30:06;5.17;;;3.23;;
6997;SDS011;3539;47.982;12.238;2023-06-14T07:32:33;5.30;;;3.30;;
6997;SDS011;3539;47.982;12.238;2023-06-14T07:35:00;4.13;;;3.20;;
6997;SDS011;3539;47.982;12.238;2023-06-14T07:37:28;3.73;;;2.70;;
6997;SDS011;3539;47.982;12.238;2023-06-14T07:39:54;3.33;;;2.90;;
6997;SDS011;3539;47.982;12.238;2023-06-14T07:42:23;3.60;;;2.77;;
6997;SDS011;3539;47.982;12.238;2023-06-14T07:44:50;4.43;;;2.70;;
6997;SDS011;3539;47.982;12.238;2023-06-14T07:47:17;4.13;;;2.50;;
6997;SDS011;3539;47.982;12.238;2023-06-14T07:49:44;5.53;;;3.00;;
6997;SDS011;3539;47.982;12.238;2023-06-14T07:52:13;3.93;;;2.70;;
6997;SDS011;3539;47.982;12.238;2023-06-14T07:54:40;4.03;;;2.80;;
6997;SDS011;3539;47.982;12.238;2023-06-14T07:57:08;4.77;;;2.70;;
6997;SDS011;3539;47.982;12.238;2023-06-14T07:59:36;4.10;;;2.63;;
6997;SDS011;3539;47.982;12.238;2023-06-14T08:02:03;4.23;;;2.67;;
6997;SDS011;3539;47.982;12.238;2023-06-14T08:04:31;3.80;;;2.60;;
6997;SDS011;3539;47.982;12.238;2023-06-14T08:06:58;3.00;;;2.70;;
6997;SDS011;3539;47.982;12.238;2023-06-14T08:09:25;4.40;;;2.80;;
6997;SDS011;3539;47.982;12.238;2023-06-14T08:11:53;4.03;;;3.47;;
6997;SDS011;3539;47.982;12.238;2023-06-14T08:14:20;4.40;;;2.83;;
6997;SDS011;3539;47.982;12.238;2023-06-14T08:16:49;3.17;;;2.60;;
6997;SDS011;3539;47.982;12.238;2023-06-14T08:19:15;6.30;;;2.67;;
6997;SDS011;3539;47.982;12.238;2023-06-14T08:21:43;5.30;;;2.83;;
6997;SDS011;3539;47.982;12.238;2023-06-14T08:24:11;5.53;;;2.63;;
6997;SDS011;3539;47.982;12.238;2023-06-14T08:26:38;5.63;;;2.80;;
6997;SDS011;3539;47.982;12.238;2023-06-14T08:29:05;5.33;;;2.90;;
6997;SDS011;3539;47.982;12.238;2023-06-14T08:31:32;3.23;;;2.47;;
6997;SDS011;3539;47.982;12.238;2023-06-14T08:34:00;5.03;;;2.60;;
6997;SDS011;3539;47.982;12.238;2023-06-14T08:36:27;3.45;;;2.90;;
6997;SDS011;3539;47.982;12.238;2023-06-14T08:38:53;3.17;;;2.87;;
6997;SDS011;3539;47.982;12.238;2023-06-14T08:41:21;2.80;;;2.43;;
6997;SDS011;3539;47.982;12.238;2023-06-14T08:43:49;8.57;;;2.80;;
6997;SDS011;3539;47.982;12.238;2023-06-14T08:46:17;4.77;;;2.60;;
6997;SDS011;3539;47.982;12.238;2023-06-14T08:48:46;4.23;;;2.60;;
6997;SDS011;3539;47.982;12.238;2023-06-14T08:51:14;4.10;;;2.50;;
6997;SDS011;3539;47.982;12.238;2023-06-14T08:53:44;6.57;;;2.70;;
6997;SDS011;3539;47.982;12.238;2023-06-14T08:56:11;3.83;;;2.83;;
6997;SDS011;3539;47.982;12.238;2023-06-14T08:58:40;4.33;;;2.40;;
6997;SDS011;3539;47.982;12.238;2023-06-14T09:01:10;2.63;;;2.33;;
6997;SDS011;3539;47.982;12.238;2023-06-14T09:03:39;4.57;;;2.47;;
6997;SDS011;3539;47.982;12.238;2023-06-14T09:06:06;3.33;;;2.60;;
6997;SDS011;3539;47.982;12.238;2023-06-14T09:08:40;3.23;;;2.20;;
6997;SDS011;3539;47.982;12.238;2023-06-14T09:11:09;5.13;;;2.70;;
6997;SDS011;3539;47.982;12.238;2023-06-14T09:13:37;5.07;;;2.20;;
6997;SDS011;3539;47.982;12.238;2023-06-14T09:16:04;5.20;;;2.70;;
6997;SDS011;3539;47.982;12.238;2023-06-14T09:18:34;2.90;;;2.53;;
6997;SDS011;3539;47.982;12.238;2023-06-14T09:21:02;2.77;;;2.30;;
6997;SDS011;3539;47.982;12.238;2023-06-14T09:23:29;2.67;;;2.30;;
6997;SDS011;3539;47.982;12.238;2023-06-14T09:25:57;3.23;;;2.33;;
6997;SDS011;3539;47.982;12.238;2023-06-14T09:28:26;3.80;;;2.77;;
6997;SDS011;3539;47.982;12.238;2023-06-14T09:30:53;3.20;;;2.47;;
6997;SDS011;3539;47.982;12.238;2023-06-14T09:33:21;3.80;;;2.67;;
6997;SDS011;3539;47.982;12.238;2023-06-14T09:35:50;4.23;;;2.40;;
6997;SDS011;3539;47.982;12.238;2023-06-14T09:38:18;3.47;;;2.27;;
6997;SDS011;3539;47.982;12.238;2023-06-14T09:40:45;3.70;;;2.70;;
6997;SDS011;3539;47.982;12.238;2023-06-14T09:43:13;3.13;;;2.30;;
6997;SDS011;3539;47.982;12.238;2023-06-14T09:45:40;2.70;;;2.47;;
6997;SDS011;3539;47.982;12.238;2023-06-14T09:48:10;4.93;;;2.63;;
6997;SDS011;3539;47.982;12.238;2023-06-14T09:50:42;3.37;;;2.50;;
6997;SDS011;3539;47.982;12.238;2023-06-14T09:53:11;2.80;;;2.53;;
6997;SDS011;3539;47.982;12.238;2023-06-14T09:55:40;7.03;;;3.00;;
6997;SDS011;3539;47.982;12.238;2023-06-14T09:58:08;4.43;;;2.50;;
6997;SDS011;3539;47.982;12.238;2023-06-14T10:00:38;4.10;;;2.50;;
6997;SDS011;3539;47.982;12.238;2023-06-14T10:03:06;2.63;;;2.20;;
6997;SDS011;3539;47.982;12.238;2023-06-14T10:05:39;2.97;;;2.33;;
6997;SDS011;3539;47.982;12.238;2023-06-14T10:08:08;2.67;;;2.17;;
6997;SDS011;3539;47.982;12.238;2023-06-14T10:10:35;2.53;;;2.20;;
6997;SDS011;3539;47.982;12.238;2023-06-14T10:13:02;3.67;;;2.37;;
6997;SDS011;3539;47.982;12.238;2023-06-14T10:15:30;4.73;;;2.60;;
6997;SDS011;3539;47.982;12.238;2023-06-14T10:18:04;2.70;;;2.10;;
6997;SDS011;3539;47.982;12.238;2023-06-14T10:20:37;3.80;;;2.27;;
6997;SDS011;3539;47.982;12.238;2023-06-14T10:23:08;4.47;;;2.67;;
6997;SDS011;3539;47.982;12.238;2023-06-14T10:25:38;3.20;;;2.40;;
6997;SDS011;3539;47.982;12.238;2023-06-14T10:28:14;3.03;;;2.30;;
6997;SDS011;3539;47.982;12.238;2023-06-14T10:33:32;6.50;;;2.60;;
6997;SDS011;3539;47.982;12.238;2023-06-14T10:36:09;3.97;;;2.28;;
6997;SDS011;3539;47.982;12.238;2023-06-14T10:38:37;3.73;;;2.40;;
6997;SDS011;3539;47.982;12.238;2023-06-14T10:41:04;4.32;;;3.65;;
6997;SDS011;3539;47.982;12.238;2023-06-14T10:43:32;4.35;;;2.10;;
6997;SDS011;3539;47.982;12.238;2023-06-14T10:46:11;3.15;;;2.45;;
6997;SDS011;3539;47.982;12.238;2023-06-14T10:48:43;4.95;;;2.33;;
6997;SDS011;3539;47.982;12.238;2023-06-14T10:51:16;4.20;;;2.22;;
6997;SDS011;3539;47.982;12.238;2023-06-14T10:53:45;3.45;;;2.30;;
6997;SDS011;3539;47.982;12.238;2023-06-14T10:56:28;3.17;;;2.50;;
6997;SDS011;3539;47.982;12.238;2023-06-14T10:58:56;4.18;;;2.70;;
6997;SDS011;3539;47.982;12.238;2023-06-14T11:01:28;2.97;;;2.50;;
6997;SDS011;3539;47.982;12.238;2023-06-14T11:04:05;5.47;;;2.83;;
6997;SDS011;3539;47.982;12.238;2023-06-14T11:06:36;4.05;;;2.47;;
6997;SDS011;3539;47.982;12.238;2023-06-14T11:09:27;3.58;;;2.50;;
6997;SDS011;3539;47.982;12.238;2023-06-14T11:12:06;2.83;;;2.28;;
6997;SDS011;3539;47.982;12.238;2023-06-14T11:14:36;3.75;;;2.70;;
6997;SDS011;3539;47.982;12.238;2023-06-14T11:17:04;3.90;;;2.60;;
6997;SDS011;3539;47.982;12.238;2023-06-14T11:19:33;4.15;;;2.30;;
6997;SDS011;3539;47.982;12.238;2023-06-14T11:22:00;3.85;;;2.72;;
6997;SDS011;3539;47.982;12.238;2023-06-14T11:24:26;2.92;;;2.55;;
6997;SDS011;3539;47.982;12.238;2023-06-14T11:26:53;3.30;;;2.53;;
6997;SDS011;3539;47.982;12.238;2023-06-14T11:29:22;3.75;;;2.30;;
6997;SDS011;3539;47.982;12.238;2023-06-14T11:31:49;3.88;;;2.40;;
6997;SDS011;3539;47.982;12.238;2023-06-14T11:34:17;5.05;;;2.35;;
6997;SDS011;3539;47.982;12.238;2023-06-14T11:36:46;5.35;;;2.40;;
6997;SDS011;3539;47.982;12.238;2023-06-14T11:39:13;4.68;;;2.78;;
6997;SDS011;3539;47.982;12.238;2023-06-14T11:41:40;3.58;;;2.55;;
6997;SDS011;3539;47.982;12.238;2023-06-14T11:44:08;2.60;;;2.40;;
6997;SDS011;3539;47.982;12.238;2023-06-14T11:46:35;4.55;;;2.33;;
6997;SDS011;3539;47.982;12.238;2023-06-14T11:49:02;6.53;;;2.50;;
6997;SDS011;3539;47.982;12.238;2023-06-14T11:51:32;3.28;;;2.67;;
6997;SDS011;3539;47.982;12.238;2023-06-14T11:54:00;2.97;;;2.60;;
6997;SDS011;3539;47.982;12.238;2023-06-14T11:56:27;3.05;;;2.35;;
6997;SDS011;3539;47.982;12.238;2023-06-14T11:58:55;3.58;;;2.70;;
6997;SDS011;3539;47.982;12.238;2023-06-14T12:01:22;3.35;;;2.35;;
6997;SDS011;3539;47.982;12.238;2023-06-14T12:03:49;3.00;;;2.58;;
6997;SDS011;3539;47.982;12.238;2023-06-14T12:06:19;4.88;;;2.22;;
6997;SDS011;3539;47.982;12.238;2023-06-14T12:08:55;4.65;;;2.42;;
6997;SDS011;3539;47.982;12.238;2023-06-14T12:11:23;3.30;;;2.40;;
6997;SDS011;3539;47.982;12.238;2023-06-14T12:13:50;4.25;;;2.80;;
6997;SDS011;3539;47.982;12.238;2023-06-14T12:16:17;3.78;;;2.47;;
6997;SDS011;3539;47.982;12.238;2023-06-14T12:18:44;4.70;;;2.50;;
6997;SDS011;3539;47.982;12.238;2023-06-14T12:21:11;3.72;;;2.40;;
6997;SDS011;3539;47.982;12.238;2023-06-14T12:23:44;3.45;;;2.38;;
6997;SDS011;3539;47.982;12.238;2023-06-14T12:26:14;3.42;;;2.65;;
6997;SDS011;3539;47.982;12.238;2023-06-14T12:28:43;3.63;;;2.60;;
6997;SDS011;3539;47.982;12.238;2023-06-14T12:31:11;2.92;;;2.40;;
6997;SDS011;3539;47.982;12.238;2023-06-14T12:33:39;3.45;;;2.30;;
6997;SDS011;3539;47.982;12.238;2023-06-14T12:36:06;3.25;;;2.40;;
6997;SDS011;3539;47.982;12.238;2023-06-14T12:38:33;3.88;;;2.50;;
6997;SDS011;3539;47.982;12.238;2023-06-14T12:41:00;4.78;;;2.83;;
6997;SDS011;3539;47.982;12.238;2023-06-14T12:43:27;4.18;;;2.45;;
6997;SDS011;3539;47.982;12.238;2023-06-14T12:45:55;5.05;;;2.53;;
6997;SDS011;3539;47.982;12.238;2023-06-14T12:48:22;2.65;;;2.20;;
6997;SDS011;3539;47.982;12.238;2023-06-14T12:50:49;2.80;;;2.35;;
6997;SDS011;3539;47.982;12.238;2023-06-14T12:53:15;5.25;;;2.35;;
6997;SDS011;3539;47.982;12.238;2023-06-14T12:55:42;2.40;;;2.20;;
6997;SDS011;3539;47.982;12.238;2023-06-14T12:58:09;6.55;;;2.50;;
6997;SDS011;3539;47.982;12.238;2023-06-14T13:00:37;5.20;;;2.70;;
6997;SDS011;3539;47.982;12.238;2023-06-14T13:03:06;4.03;;;2.22;;
6997;SDS011;3539;47.982;12.238;2023-06-14T13:05:32;4.15;;;2.25;;
6997;SDS011;3539;47.982;12.238;2023-06-14T13:08:00;3.47;;;2.63;;
6997;SDS011;3539;47.982;12.238;2023-06-14T13:10:27;6.35;;;2.30;;
6997;SDS011;3539;47.982;12.238;2023-06-14T13:12:54;4.07;;;2.60;;
6997;SDS011;3539;47.982;12.238;2023-06-14T13:15:23;3.20;;;2.40;;
6997;SDS011;3539;47.982;12.238;2023-06-14T13:17:49;5.78;;;2.42;;
6997;SDS011;3539;47.982;12.238;2023-06-14T13:20:18;5.13;;;2.40;;
6997;SDS011;3539;47.982;12.238;2023-06-14T13:22:45;4.37;;;2.50;;
6997;SDS011;3539;47.982;12.238;2023-06-14T13:25:12;3.00;;;2.27;;
6997;SDS011;3539;47.982;12.238;2023-06-14T13:27:38;4.27;;;2.43;;
6997;SDS011;3539;47.982;12.238;2023-06-14T13:30:06;3.50;;;2.90;;
6997;SDS011;3539;47.982;12.238;2023-06-14T13:32:34;2.60;;;2.30;;
6997;SDS011;3539;47.982;12.238;2023-06-14T13:35:01;2.78;;;2.45;;
6997;SDS011;3539;47.982;12.238;2023-06-14T13:37:30;3.60;;;2.37;;
6997;SDS011;3539;47.982;12.238;2023-06-14T13:39:57;4.17;;;2.63;;
6997;SDS011;3539;47.982;12.238;2023-06-14T13:42:24;3.17;;;2.80;;
6997;SDS011;3539;47.982;12.238;2023-06-14T13:44:51;5.87;;;2.40;;
6997;SDS011;3539;47.982;12.238;2023-06-14T13:47:17;7.10;;;2.50;;
6997;SDS011;3539;47.982;12.238;2023-06-14T13:49:44;4.50;;;2.50;;
6997;SDS011;3539;47.982;12.238;2023-06-14T13:52:12;3.87;;;2.70;;
6997;SDS011;3539;47.982;12.238;2023-06-14T13:54:40;4.63;;;2.80;;
6997;SDS011;3539;47.982;12.238;2023-06-14T13:57:07;3.20;;;2.27;;
6997;SDS011;3539;47.982;12.238;2023-06-14T13:59:37;3.40;;;2.40;;
6997;SDS011;3539;47.982;12.238;2023-06-14T14:02:04;4.10;;;2.83;;
6997;SDS011;3539;47.982;12.238;2023-06-14T14:04:32;4.00;;;2.97;;
6997;SDS011;3539;47.982;12.238;2023-06-14T14:07:00;5.03;;;2.80;;
6997;SDS011;3539;47.982;12.238;2023-06-14T14:09:26;4.47;;;2.53;;
6997;SDS011;3539;47.982;12.238;2023-06-14T14:11:55;2.53;;;2.30;;
6997;SDS011;3539;47.982;12.238;2023-06-14T14:14:22;5.17;;;2.30;;
6997;SDS011;3539;47.982;12.238;2023-06-14T14:16:49;2.90;;;2.27;;
6997;SDS011;3539;47.982;12.238;2023-06-14T14:19:16;2.83;;;2.17;;
6997;SDS011;3539;47.982;12.238;2023-06-14T14:21:43;7.00;;;2.60;;
6997;SDS011;3539;47.982;12.238;2023-06-14T14:24:10;5.07;;;2.57;;
6997;SDS011;3539;47.982;12.238;2023-06-14T14:26:37;2.73;;;2.50;;
6997;SDS011;3539;47.982;12.238;2023-06-14T14:29:05;2.90;;;2.27;;
6997;SDS011;3539;47.982;12.238;2023-06-14T14:31:36;7.23;;;2.70;;
6997;SDS011;3539;47.982;12.238;2023-06-14T14:34:03;3.87;;;2.13;;
6997;SDS011;3539;47.982;12.238;2023-06-14T14:36:30;4.17;;;2.57;;
6997;SDS011;3539;47.982;12.238;2023-06-14T14:38:58;6.03;;;2.30;;
6997;SDS011;3539;47.982;12.238;2023-06-14T14:41:25;13.50;;;2.87;;
6997;SDS011;3539;47.982;12.238;2023-06-14T14:43:56;2.80;;;2.53;;
6997;SDS011;3539;47.982;12.238;2023-06-14T14:46:25;3.00;;;2.40;;
6997;SDS011;3539;47.982;12.238;2023-06-14T14:48:53;4.00;;;2.50;;
6997;SDS011;3539;47.982;12.238;2023-06-14T14:51:20;3.67;;;2.67;;
6997;SDS011;3539;47.982;12.238;2023-06-14T14:53:46;9.50;;;2.90;;
6997;SDS011;3539;47.982;12.238;2023-06-14T14:56:16;3.00;;;2.50;;
6997;SDS011;3539;47.982;12.238;2023-06-14T14:58:43;7.13;;;2.70;;
6997;SDS011;3539;47.982;12.238;2023-06-14T15:01:10;3.93;;;2.60;;
6997;SDS011;3539;47.982;12.238;2023-06-14T15:03:38;6.23;;;2.60;;
6997;SDS011;3539;47.982;12.238;2023-06-14T15:06:05;3.22;;;2.60;;
6997;SDS011;3539;47.982;12.238;2023-06-14T15:08:32;3.70;;;2.73;;